Sally — WDC3701 — position and weather

sailwx.info

Track history (hours):
 
Tides and Currents Weather Stations Pressure Air Temp Water Temp Dewpoint Dewpoint Depression Visibility Wind Speed Wind Dir Waves Ship Positions

Sally

Owner: Wilmington Tug, Inc., New Castle, DE. More information available from US FCC via Universal Licensing System and Coast Guard Vessel Documentation Center.

Last reported at 2018-Apr-26 18:30 UTC. Time now 2018-Apr-26 18:54 UTC.
Position N 39°43' W 075°31'.

Length 24 m; draft 4 m.

Type: Tug. MMSI: 367012660.

Date/timePositionNaut miles runAvg speedWind from/ knotsBaromVisibWave heightAir tempDewpointWater temp
2018-Apr-26 18:30N 39°43' W 075°31'0 0.0
2018-Apr-26 18:00N 39°43' W 075°31'0 0.0
2018-Apr-26 17:30N 39°43' W 075°31'0 0.0
2018-Apr-26 17:00N 39°43' W 075°31'2 3.5
2018-Apr-26 16:30N 39°44' W 075°30'5 9.3
2018-Apr-26 16:00N 39°48' W 075°26'0 0.0
2018-Apr-26 15:30N 39°48' W 075°26'0 0.5
2018-Apr-26 15:00N 39°48' W 075°26'0 0.7
2018-Apr-26 14:30N 39°48' W 075°25'2 4.2
2018-Apr-26 14:00N 39°47' W 075°28'5 9.5
2018-Apr-26 13:30N 39°43' W 075°31'0 0.0
2018-Apr-26 12:59N 39°43' W 075°31'0 0.0
2018-Apr-26 12:27N 39°43' W 075°31'0 0.0
2018-Apr-26 11:27N 39°43' W 075°31'0 0.4
2018-Apr-26 10:59N 39°43' W 075°31'0 0.0
2018-Apr-26 10:29N 39°43' W 075°31'0 0.0
2018-Apr-26 09:59N 39°43' W 075°31'0 0.6
2018-Apr-26 09:30N 39°43' W 075°31'0 0.0
2018-Apr-26 09:00N 39°43' W 075°31'0 0.0
2018-Apr-26 08:28N 39°43' W 075°31'0 0.0
2018-Apr-26 08:00N 39°43' W 075°31'0 0.0
2018-Apr-26 07:30N 39°43' W 075°31'0 0.0
2018-Apr-26 07:00N 39°43' W 075°31'0 0.0
2018-Apr-26 06:30N 39°43' W 075°31'0 0.0
2018-Apr-26 05:59N 39°43' W 075°31'0 0.0
2018-Apr-26 05:29N 39°43' W 075°31'0 0.0
2018-Apr-26 05:00N 39°43' W 075°31'0 0.0
2018-Apr-26 04:29N 39°43' W 075°31'0 0.0
2018-Apr-26 03:53N 39°43' W 075°31'0 0.7
2018-Apr-26 03:15N 39°43' W 075°32'0 0.9
2018-Apr-26 03:00N 39°43' W 075°31'1 1.4
2018-Apr-26 02:30N 39°43' W 075°31'0 0.1
2018-Apr-26 02:00N 39°43' W 075°31'1 1.6
2018-Apr-26 01:30N 39°43' W 075°32'0 0.0
2018-Apr-26 01:00N 39°43' W 075°32'0 0.0
2018-Apr-26 00:30N 39°43' W 075°32'0 0.0
2018-Apr-26 00:00N 39°43' W 075°32'0 0.7
2018-Apr-25 23:30N 39°43' W 075°31'611.1
2018-Apr-25 23:00N 39°38' W 075°34'510.8
2018-Apr-25 22:30N 39°33' W 075°33'3 6.4
2018-Apr-25 22:00N 39°35' W 075°36'0 0.1
2018-Apr-25 21:30N 39°35' W 075°36'0 0.0
2018-Apr-25 21:00N 39°35' W 075°36'4 7.3
2018-Apr-25 20:30N 39°39' W 075°34'510.1
2018-Apr-25 20:00N 39°43' W 075°31'0 0.0
2018-Apr-25 19:30N 39°43' W 075°31'0 0.0
2018-Apr-25 19:00N 39°43' W 075°31'0 0.0
2018-Apr-25 18:30N 39°43' W 075°31'0 0.0
2018-Apr-25 18:00N 39°43' W 075°31'0 0.0
2018-Apr-25 17:30N 39°43' W 075°31'0 0.0
2018-Apr-25 17:00N 39°43' W 075°31'0 0.0
2018-Apr-25 16:30N 39°43' W 075°31'0 0.0
2018-Apr-25 16:00N 39°43' W 075°31'0 0.0
2018-Apr-25 15:30N 39°43' W 075°31'0 0.0
2018-Apr-25 15:00N 39°43' W 075°31'0 0.4
2018-Apr-25 14:30N 39°43' W 075°31'1 1.6
2018-Apr-25 14:00N 39°42' W 075°31'1 1.3
2018-Apr-25 13:30N 39°43' W 075°31'0 0.0
2018-Apr-25 13:00N 39°43' W 075°31'0 0.0
2018-Apr-25 12:30N 39°43' W 075°31'0 0.8
2018-Apr-25 12:00N 39°43' W 075°31'0 0.5
2018-Apr-25 11:30N 39°43' W 075°31'0 0.7
2018-Apr-25 10:59N 39°43' W 075°31'0 0.5
2018-Apr-25 10:30N 39°43' W 075°31'0 0.0
2018-Apr-25 10:00N 39°43' W 075°31'0 0.0
2018-Apr-25 09:30N 39°43' W 075°31'0 0.0
2018-Apr-25 09:00N 39°43' W 075°31'0 0.0
2018-Apr-25 08:30N 39°43' W 075°31'0 0.1
2018-Apr-25 08:00N 39°43' W 075°31'5 9.3
2018-Apr-25 07:30N 39°39' W 075°34'4 8.0
2018-Apr-25 07:00N 39°35' W 075°36'0 0.0
2018-Apr-25 06:30N 39°35' W 075°36'2 4.7
2018-Apr-25 06:00N 39°34' W 075°33'3 6.1
2018-Apr-25 05:30N 39°37' W 075°35'510.6
2018-Apr-25 05:00N 39°41' W 075°31'2 3.5
2018-Apr-25 04:30N 39°43' W 075°31'0 0.0
2018-Apr-25 04:00N 39°43' W 075°31'0 0.1
2018-Apr-25 03:30N 39°43' W 075°31'0 0.0
2018-Apr-25 03:00N 39°43' W 075°31'0 0.2
2018-Apr-25 02:30N 39°43' W 075°31'0 0.0
2018-Apr-25 02:00N 39°43' W 075°31'0 0.0
2018-Apr-25 01:30N 39°43' W 075°31'0 0.0
2018-Apr-25 01:00N 39°43' W 075°31'0 0.0
2018-Apr-25 00:30N 39°43' W 075°31'0 0.0
2018-Apr-25 00:00N 39°43' W 075°31'0 0.0
2018-Apr-24 23:30N 39°43' W 075°31'0 0.0
2018-Apr-24 23:00N 39°43' W 075°31'0 0.0
2018-Apr-24 22:30N 39°43' W 075°31'0 0.0
2018-Apr-24 22:00N 39°43' W 075°31'0 0.0
2018-Apr-24 21:29N 39°43' W 075°31'0 0.0
2018-Apr-24 21:00N 39°43' W 075°31'0 0.0
2018-Apr-24 20:30N 39°43' W 075°31'0 0.0
2018-Apr-24 20:00N 39°43' W 075°31'0 0.0
2018-Apr-24 19:30N 39°43' W 075°31'0 0.0
2018-Apr-24 19:00N 39°43' W 075°31'0 0.0
2018-Apr-24 18:30N 39°43' W 075°31'0 0.0
2018-Apr-24 18:00N 39°43' W 075°31'0 0.0
2018-Apr-24 17:30N 39°43' W 075°31'0 0.0
2018-Apr-24 17:00N 39°43' W 075°31'2 5.0
2018-Apr-24 16:30N 39°45' W 075°29'612.4
2018-Apr-24 16:00N 39°49' W 075°23'612.0
2018-Apr-24 15:30N 39°51' W 075°16'510.9
2018-Apr-24 15:00N 39°53' W 075°09'4 8.5
2018-Apr-24 14:30N 39°57' W 075°08'2 4.6
2018-Apr-24 14:00N 39°59' W 075°06'0 0.2
2018-Apr-24 13:30N 39°59' W 075°06'0 0.0
2018-Apr-24 13:00N 39°59' W 075°06'2 3.8
2018-Apr-24 12:28N 39°57' W 075°08'5 9.6
2018-Apr-24 12:00N 39°53' W 075°09'611.4
2018-Apr-24 11:31N 39°51' W 075°16'0 0.3
2018-Apr-24 10:59N 39°51' W 075°16'0 0.8
2018-Apr-24 10:30N 39°51' W 075°16'0 0.0
2018-Apr-24 10:00N 39°51' W 075°16'3 6.0
2018-Apr-24 09:30N 39°52' W 075°12'4 8.5
2018-Apr-24 09:00N 39°55' W 075°08'0 0.6
2018-Apr-24 08:30N 39°55' W 075°08'0 0.2
2018-Apr-24 08:00N 39°55' W 075°08'2 4.8
2018-Apr-24 07:30N 39°53' W 075°09'5 9.1
2018-Apr-24 07:00N 39°51' W 075°15'5 9.5
2018-Apr-24 06:30N 39°50' W 075°21'5 9.4
2018-Apr-24 06:00N 39°48' W 075°26'5 9.4
2018-Apr-24 05:30N 39°44' W 075°30'1 2.8
2018-Apr-24 05:00N 39°43' W 075°31'0 0.0
2018-Apr-24 04:30N 39°43' W 075°31'0 0.0
2018-Apr-24 04:00N 39°43' W 075°31'0 0.0
2018-Apr-24 03:30N 39°43' W 075°31'0 0.0
2018-Apr-24 03:00N 39°43' W 075°31'0 0.0
2018-Apr-24 02:30N 39°43' W 075°31'0 0.0
2018-Apr-24 02:00N 39°43' W 075°31'0 0.0
2018-Apr-24 01:30N 39°43' W 075°31'0 0.0
2018-Apr-24 01:00N 39°43' W 075°31'0 0.0
2018-Apr-24 00:30N 39°43' W 075°31'0 0.0
2018-Apr-24 00:00N 39°43' W 075°31'0 0.0
2018-Apr-23 23:30N 39°43' W 075°31'0 0.0
2018-Apr-23 23:00N 39°43' W 075°31'0 0.0
2018-Apr-23 22:30N 39°43' W 075°31'0 0.0
2018-Apr-23 22:00N 39°43' W 075°31'0 0.0
2018-Apr-23 21:30N 39°43' W 075°31'0 0.0
2018-Apr-23 21:00N 39°43' W 075°31'0 0.0
2018-Apr-23 20:30N 39°43' W 075°31'0 0.0
2018-Apr-23 20:00N 39°43' W 075°31'0 0.7
2018-Apr-23 19:30N 39°43' W 075°32'0 0.9
2018-Apr-23 18:58N 39°43' W 075°31'1 2.4
2018-Apr-23 18:30N 39°42' W 075°31'1 2.6
2018-Apr-23 18:00N 39°43' W 075°31'0 0.1
2018-Apr-23 17:30N 39°43' W 075°31'0 0.4
2018-Apr-23 17:00N 39°43' W 075°31'0 0.0
2018-Apr-23 16:30N 39°43' W 075°31'0 0.0
2018-Apr-23 16:00N 39°43' W 075°31'0 0.0
2018-Apr-23 15:30N 39°43' W 075°31'0 0.0
2018-Apr-23 15:00N 39°43' W 075°31'0 0.0
2018-Apr-23 14:30N 39°43' W 075°31'0 0.0
2018-Apr-23 13:56N 39°43' W 075°31'1 1.4
2018-Apr-23 13:30N 39°43' W 075°31'1 1.8
2018-Apr-23 13:00N 39°42' W 075°31'1 1.7
2018-Apr-23 12:30N 39°43' W 075°31'0 0.0
2018-Apr-23 12:00N 39°43' W 075°31'0 0.0
2018-Apr-23 11:30N 39°43' W 075°31'0 0.0
2018-Apr-23 11:00N 39°43' W 075°31'510.2
2018-Apr-23 10:30N 39°38' W 075°34'611.8
2018-Apr-23 10:00N 39°32' W 075°33'3 6.4
2018-Apr-23 09:30N 39°35' W 075°35'0 0.4
2018-Apr-23 09:00N 39°35' W 075°35'0 0.0
2018-Apr-23 08:30N 39°35' W 075°35'0 0.0
2018-Apr-23 08:00N 39°35' W 075°35'0 0.4
2018-Apr-23 07:30N 39°35' W 075°36'0 0.0
2018-Apr-23 07:00N 39°35' W 075°36'0 0.0
2018-Apr-23 06:30N 39°35' W 075°36'0 0.0
2018-Apr-23 06:00N 39°35' W 075°36'0 0.0
2018-Apr-23 05:30N 39°35' W 075°36'0 0.0
2018-Apr-23 05:00N 39°35' W 075°36'0 0.0
2018-Apr-23 04:30N 39°35' W 075°36'0 0.0
2018-Apr-23 04:00N 39°35' W 075°36'0 0.0
2018-Apr-23 03:30N 39°35' W 075°36'0 0.0
2018-Apr-23 03:00N 39°35' W 075°36'0 0.0
2018-Apr-23 02:29N 39°35' W 075°36'1 1.9
2018-Apr-23 02:00N 39°35' W 075°35'3 5.8
2018-Apr-23 01:30N 39°32' W 075°33'3 7.0
2018-Apr-23 01:00N 39°35' W 075°35'0 0.0
2018-Apr-23 00:30N 39°35' W 075°35'0 0.0
2018-Apr-23 00:00N 39°35' W 075°35'1 1.2
2018-Apr-22 23:30N 39°35' W 075°35'2 3.4
2018-Apr-22 23:00N 39°34' W 075°33'2 4.9
2018-Apr-22 22:30N 39°36' W 075°34'1 2.7
2018-Apr-22 22:00N 39°35' W 075°35'0 0.9
2018-Apr-22 21:30N 39°35' W 075°35'0 0.0
2018-Apr-22 21:00N 39°35' W 075°35'0 0.0
2018-Apr-22 20:30N 39°35' W 075°35'0 0.0
2018-Apr-22 20:00N 39°35' W 075°35'0 0.0
2018-Apr-22 19:30N 39°35' W 075°35'0 0.0
2018-Apr-22 19:00N 39°35' W 075°35'0 0.0
2018-Apr-22 18:30N 39°35' W 075°35'0 0.0
2018-Apr-22 18:00N 39°35' W 075°35'0 0.0
2018-Apr-22 17:30N 39°35' W 075°35'0 0.0
2018-Apr-22 17:00N 39°35' W 075°35'0 0.0
2018-Apr-22 16:30N 39°35' W 075°35'0 0.0
2018-Apr-22 16:00N 39°35' W 075°35'0 0.0
2018-Apr-22 15:30N 39°35' W 075°35'0 0.0
2018-Apr-22 15:01N 39°35' W 075°35'0 0.0
2018-Apr-22 14:30N 39°35' W 075°35'0 0.0
2018-Apr-22 14:00N 39°35' W 075°35'0 0.0
2018-Apr-22 13:30N 39°35' W 075°35'0 0.0
2018-Apr-22 13:00N 39°35' W 075°35'0 0.0
2018-Apr-22 12:30N 39°35' W 075°35'0 0.0
2018-Apr-22 12:00N 39°35' W 075°35'0 0.0
2018-Apr-22 11:30N 39°35' W 075°35'0 0.0
2018-Apr-22 11:00N 39°35' W 075°35'0 0.0
2018-Apr-22 10:30N 39°35' W 075°35'0 0.0
2018-Apr-22 10:00N 39°35' W 075°35'0 0.0
2018-Apr-22 09:30N 39°35' W 075°35'0 0.0
2018-Apr-22 09:00N 39°35' W 075°35'0 0.0
2018-Apr-22 08:30N 39°35' W 075°35'0 0.0
2018-Apr-22 08:00N 39°35' W 075°35'0 0.0
2018-Apr-22 07:30N 39°35' W 075°35'0 0.0
2018-Apr-22 07:00N 39°35' W 075°35'0 0.0
2018-Apr-22 06:30N 39°35' W 075°35'0 0.0
2018-Apr-22 06:00N 39°35' W 075°35'0 0.0
2018-Apr-22 05:30N 39°35' W 075°35'0 0.0
2018-Apr-22 05:00N 39°35' W 075°35'0 0.0
2018-Apr-22 04:30N 39°35' W 075°35'0 0.0
2018-Apr-22 04:00N 39°35' W 075°35'0 0.5
2018-Apr-22 03:30N 39°35' W 075°36'0 0.0
2018-Apr-22 03:00N 39°35' W 075°36'0 0.6
2018-Apr-22 02:30N 39°35' W 075°35'0 0.0
2018-Apr-22 02:00N 39°35' W 075°35'0 0.0
2018-Apr-22 01:30N 39°35' W 075°35'0 0.0
2018-Apr-22 01:00N 39°35' W 075°35'0 0.0
2018-Apr-22 00:30N 39°35' W 075°35'3 5.1
2018-Apr-22 00:00N 39°37' W 075°36'612.0
2018-Apr-21 23:30N 39°42' W 075°31'1 2.3
2018-Apr-21 23:00N 39°43' W 075°31'0 0.4
2018-Apr-21 22:30N 39°43' W 075°31'2 4.0
2018-Apr-21 22:00N 39°41' W 075°31'0 0.2
2018-Apr-21 21:30N 39°41' W 075°31'2 3.9
2018-Apr-21 21:00N 39°43' W 075°31'0 0.0
2018-Apr-21 20:30N 39°43' W 075°31'0 0.0
2018-Apr-21 19:52N 39°43' W 075°31'0 0.0
2018-Apr-21 19:17N 39°43' W 075°31'0 0.0
2018-Apr-21 18:18N 39°43' W 075°31'0 0.0
2018-Apr-21 17:59N 39°43' W 075°31'0 0.0
2018-Apr-21 17:30N 39°43' W 075°31'0 0.0
2018-Apr-21 16:59N 39°43' W 075°31'0 0.0
2018-Apr-21 16:28N 39°43' W 075°31'0 0.0
2018-Apr-21 15:57N 39°43' W 075°31'0 0.0
2018-Apr-21 15:30N 39°43' W 075°31'0 0.0
2018-Apr-21 15:00N 39°43' W 075°31'0 0.0
2018-Apr-21 14:29N 39°43' W 075°31'0 0.0
2018-Apr-21 13:59N 39°43' W 075°31'0 0.0
2018-Apr-21 13:30N 39°43' W 075°31'0 0.0
2018-Apr-21 12:59N 39°43' W 075°31'0 0.0
2018-Apr-21 12:28N 39°43' W 075°31'0 0.0
2018-Apr-21 11:58N 39°43' W 075°31'0 0.0
2018-Apr-21 11:29N 39°43' W 075°31'0 0.0
2018-Apr-21 11:00N 39°43' W 075°31'0 0.0
2018-Apr-21 10:30N 39°43' W 075°31'0 0.0
2018-Apr-21 10:00N 39°43' W 075°31'1 2.5
2018-Apr-21 09:30N 39°42' W 075°31'612.6
2018-Apr-21 09:00N 39°37' W 075°36'2 3.6
2018-Apr-21 08:30N 39°35' W 075°36'0 0.3
2018-Apr-21 08:00N 39°35' W 075°35'0 0.0
2018-Apr-21 07:30N 39°35' W 075°35'0 0.0
2018-Apr-21 07:00N 39°35' W 075°35'0 0.0
2018-Apr-21 06:30N 39°35' W 075°35'0 0.0
2018-Apr-21 06:00N 39°35' W 075°35'0 0.0
2018-Apr-21 05:30N 39°35' W 075°35'0 0.0
2018-Apr-21 05:00N 39°35' W 075°35'0 0.0
2018-Apr-21 04:30N 39°35' W 075°35'0 0.0
2018-Apr-21 04:00N 39°35' W 075°35'0 0.0
2018-Apr-21 03:30N 39°35' W 075°35'0 0.0
2018-Apr-21 03:00N 39°35' W 075°35'1 2.5
2018-Apr-21 02:30N 39°36' W 075°36'611.2
2018-Apr-21 02:00N 39°41' W 075°32'2 4.8
2018-Apr-21 01:30N 39°43' W 075°31'0 0.5
2018-Apr-21 01:00N 39°43' W 075°31'0 0.0
2018-Apr-21 00:30N 39°43' W 075°31'0 0.0
2018-Apr-21 00:00N 39°43' W 075°31'0 0.0
2018-Apr-20 23:30N 39°43' W 075°31'0 0.0
2018-Apr-20 23:00N 39°43' W 075°31'0 0.0
2018-Apr-20 22:30N 39°43' W 075°31'0 0.0
2018-Apr-20 22:00N 39°43' W 075°31'0 0.0
2018-Apr-20 21:30N 39°43' W 075°31'0 0.0
2018-Apr-20 21:00N 39°43' W 075°31'0 0.0
2018-Apr-20 20:30N 39°43' W 075°31'0 0.0
2018-Apr-20 20:00N 39°43' W 075°31'0 0.0
2018-Apr-20 19:30N 39°43' W 075°31'0 0.0
2018-Apr-20 19:00N 39°43' W 075°31'0 0.0
2018-Apr-20 18:30N 39°43' W 075°31'0 0.0
2018-Apr-20 18:00N 39°43' W 075°31'0 0.0
2018-Apr-20 17:30N 39°43' W 075°31'0 0.0
2018-Apr-20 16:59N 39°43' W 075°31'0 0.0
2018-Apr-20 16:30N 39°43' W 075°31'0 0.0
2018-Apr-20 16:00N 39°43' W 075°31'0 0.0
2018-Apr-20 15:30N 39°43' W 075°31'0 0.0
2018-Apr-20 15:00N 39°43' W 075°31'0 0.0
2018-Apr-20 14:30N 39°43' W 075°31'0 0.0
2018-Apr-20 14:00N 39°43' W 075°31'0 0.0
2018-Apr-20 13:30N 39°43' W 075°31'0 0.5
2018-Apr-20 13:00N 39°43' W 075°31'0 0.5
2018-Apr-20 12:30N 39°43' W 075°31'0 0.0
2018-Apr-20 11:59N 39°43' W 075°31'0 0.0
2018-Apr-20 11:29N 39°43' W 075°31'0 0.0
2018-Apr-20 10:55N 39°43' W 075°31'0 0.0
2018-Apr-20 10:30N 39°43' W 075°31'0 0.0
2018-Apr-20 10:00N 39°43' W 075°31'0 0.0
2018-Apr-20 09:29N 39°43' W 075°31'0 0.0
2018-Apr-20 09:00N 39°43' W 075°31'0 0.3
2018-Apr-20 08:30N 39°43' W 075°31'1 1.7
2018-Apr-20 08:00N 39°43' W 075°30'1 1.4
2018-Apr-20 07:30N 39°43' W 075°31'0 0.0
2018-Apr-20 06:59N 39°43' W 075°31'0 0.0
2018-Apr-20 06:29N 39°43' W 075°31'0 0.0
2018-Apr-20 06:00N 39°43' W 075°31'0 0.0
2018-Apr-20 05:30N 39°43' W 075°31'0 0.0
2018-Apr-20 05:00N 39°43' W 075°31'0 0.0
2018-Apr-20 04:30N 39°43' W 075°31'0 0.0
2018-Apr-20 04:00N 39°43' W 075°31'0 0.2
2018-Apr-20 03:30N 39°43' W 075°31'0 0.1
2018-Apr-20 03:00N 39°43' W 075°31'1 1.7
2018-Apr-20 02:30N 39°42' W 075°31'1 1.6
2018-Apr-20 02:00N 39°43' W 075°31'0 0.0
2018-Apr-20 01:30N 39°43' W 075°31'0 0.0
2018-Apr-20 01:00N 39°43' W 075°31'0 0.0
2018-Apr-20 00:30N 39°43' W 075°31'0 0.0
2018-Apr-20 00:00N 39°43' W 075°31'0 0.0
2018-Apr-19 23:19N 39°43' W 075°31'0 0.0
2018-Apr-19 23:00N 39°43' W 075°31'0 0.0
2018-Apr-19 22:30N 39°43' W 075°31'0 0.0
2018-Apr-19 22:00N 39°43' W 075°31'0 0.0
2018-Apr-19 21:30N 39°43' W 075°31'0 0.0
2018-Apr-19 21:00N 39°43' W 075°31'0 0.0
2018-Apr-19 20:30N 39°43' W 075°31'4 8.2
2018-Apr-19 20:00N 39°39' W 075°34'5 9.0
2018-Apr-19 19:30N 39°35' W 075°36'0 0.0
2018-Apr-19 19:00N 39°35' W 075°36'2 4.9
2018-Apr-19 18:30N 39°38' W 075°36'5 9.4
2018-Apr-19 18:00N 39°41' W 075°32'2 4.3
2018-Apr-19 17:30N 39°43' W 075°31'0 0.0
2018-Apr-19 17:00N 39°43' W 075°31'0 0.0
2018-Apr-19 16:30N 39°43' W 075°31'0 0.0
2018-Apr-19 16:00N 39°43' W 075°31'0 0.0
2018-Apr-19 15:30N 39°43' W 075°31'0 0.0
2018-Apr-19 15:00N 39°43' W 075°31'0 0.0
2018-Apr-19 14:30N 39°43' W 075°31'0 0.0
2018-Apr-19 14:00N 39°43' W 075°31'0 0.0
2018-Apr-19 13:30N 39°43' W 075°31'0 0.0
2018-Apr-19 13:00N 39°43' W 075°31'0 0.0
2018-Apr-19 12:30N 39°43' W 075°31'0 0.0
2018-Apr-19 12:00N 39°43' W 075°31'0 0.0
2018-Apr-19 11:30N 39°43' W 075°31'0 0.0
2018-Apr-19 10:59N 39°43' W 075°31'0 0.0
2018-Apr-19 10:30N 39°43' W 075°31'0 0.0
2018-Apr-19 10:00N 39°43' W 075°31'0 0.0
2018-Apr-19 09:30N 39°43' W 075°31'0 0.0
2018-Apr-19 09:00N 39°43' W 075°31'0 0.0
2018-Apr-19 08:30N 39°43' W 075°31'0 0.0
2018-Apr-19 08:00N 39°43' W 075°31'0 0.0
2018-Apr-19 07:30N 39°43' W 075°31'0 0.0
2018-Apr-19 07:00N 39°43' W 075°31'0 0.0
2018-Apr-19 06:30N 39°43' W 075°31'0 0.0
2018-Apr-19 06:00N 39°43' W 075°31'0 0.0
2018-Apr-19 05:30N 39°43' W 075°31'0 0.0
2018-Apr-19 05:00N 39°43' W 075°31'0 0.0
2018-Apr-19 04:30N 39°43' W 075°31'0 0.0
2018-Apr-19 04:00N 39°43' W 075°31'0 0.0
2018-Apr-19 03:30N 39°43' W 075°31'0 0.0
2018-Apr-19 03:00N 39°43' W 075°31'0 0.0
2018-Apr-19 02:30N 39°43' W 075°31'0 0.0
2018-Apr-19 02:00N 39°43' W 075°31'0 0.0
2018-Apr-19 01:30N 39°43' W 075°31'0 0.0
2018-Apr-19 01:00N 39°43' W 075°31'0 0.2
2018-Apr-19 00:30N 39°43' W 075°31'4 8.4
2018-Apr-19 00:00N 39°46' W 075°28'612.7
2018-Apr-18 23:30N 39°50' W 075°21'1 2.0
2018-Apr-18 23:00N 39°51' W 075°20'2 3.1
2018-Apr-18 22:30N 39°51' W 075°18'2 3.9
2018-Apr-18 22:00N 39°51' W 075°16'611.1
2018-Apr-18 21:30N 39°53' W 075°09'2 4.3
2018-Apr-18 21:00N 39°55' W 075°08'3 5.2
2018-Apr-18 20:31N 39°53' W 075°10'1 2.3
2018-Apr-18 20:00N 39°53' W 075°12'1 1.1
2018-Apr-18 19:30N 39°54' W 075°12'0 0.6
2018-Apr-18 19:01N 39°54' W 075°12'0 0.3
2018-Apr-18 18:30N 39°54' W 075°12'1 1.9
2018-Apr-18 18:00N 39°53' W 075°12'510.8
2018-Apr-18 17:31N 39°51' W 075°19'611.8
2018-Apr-18 17:00N 39°48' W 075°25'612.8
2018-Apr-18 16:30N 39°43' W 075°30'0 0.8
2018-Apr-18 16:00N 39°43' W 075°31'0 0.0
2018-Apr-18 15:30N 39°43' W 075°31'0 0.0
2018-Apr-18 15:00N 39°43' W 075°31'0 0.0
2018-Apr-18 14:30N 39°43' W 075°31'0 0.0
2018-Apr-18 14:00N 39°43' W 075°31'0 0.0
2018-Apr-18 13:30N 39°43' W 075°31'0 0.0
2018-Apr-18 13:00N 39°43' W 075°31'0 0.0
2018-Apr-18 12:30N 39°43' W 075°31'0 0.0
2018-Apr-18 12:00N 39°43' W 075°31'0 0.0
2018-Apr-18 11:30N 39°43' W 075°31'0 0.0
2018-Apr-18 11:00N 39°43' W 075°31'0 0.0
2018-Apr-18 10:30N 39°43' W 075°31'0 0.0
2018-Apr-18 10:00N 39°43' W 075°31'1 2.6
2018-Apr-18 09:30N 39°42' W 075°31'5 9.1
2018-Apr-18 09:00N 39°38' W 075°35'3 6.7
2018-Apr-18 08:30N 39°35' W 075°35'0 0.0
2018-Apr-18 08:00N 39°35' W 075°35'0 0.0
2018-Apr-18 07:30N 39°35' W 075°35'1 2.6
2018-Apr-18 07:00N 39°34' W 075°34'1 1.2
2018-Apr-18 06:30N 39°34' W 075°33'3 5.8
2018-Apr-18 06:00N 39°37' W 075°35'3 6.7
2018-Apr-18 05:30N 39°40' W 075°32'4 7.1
2018-Apr-18 05:00N 39°43' W 075°31'0 0.8
2018-Apr-18 04:30N 39°43' W 075°31'0 0.1
2018-Apr-18 04:00N 39°43' W 075°31'0 0.8
2018-Apr-18 03:30N 39°43' W 075°31'0 0.0
2018-Apr-18 03:00N 39°43' W 075°31'0 0.0
2018-Apr-18 02:30N 39°43' W 075°31'0 0.0
2018-Apr-18 02:00N 39°43' W 075°31'0 0.0
2018-Apr-18 01:30N 39°43' W 075°31'0 0.0
2018-Apr-18 01:00N 39°43' W 075°31'0 0.0
2018-Apr-18 00:30N 39°43' W 075°31'0 0.0
2018-Apr-18 00:00N 39°43' W 075°31'0 0.0
2018-Apr-17 23:30N 39°43' W 075°31'0 0.4
2018-Apr-17 23:00N 39°43' W 075°31'0 0.4
2018-Apr-17 22:29N 39°43' W 075°31'0 0.0
2018-Apr-17 22:00N 39°43' W 075°31'0 0.0
2018-Apr-17 21:30N 39°43' W 075°31'0 0.0
2018-Apr-17 21:00N 39°43' W 075°31'0 0.0
2018-Apr-17 20:30N 39°43' W 075°31'0 0.0
2018-Apr-17 20:00N 39°43' W 075°31'0 0.0
2018-Apr-17 19:30N 39°43' W 075°31'0 0.0
2018-Apr-17 19:00N 39°43' W 075°31'0 0.0
2018-Apr-17 18:30N 39°43' W 075°31'0 0.0
2018-Apr-17 18:00N 39°43' W 075°31'0 0.0
2018-Apr-17 17:30N 39°43' W 075°31'0 0.8
2018-Apr-17 17:00N 39°43' W 075°31'0 0.2
2018-Apr-17 16:30N 39°43' W 075°32'0 0.8
2018-Apr-17 16:00N 39°43' W 075°31'0 0.2
2018-Apr-17 15:30N 39°43' W 075°31'0 0.0
2018-Apr-17 15:00N 39°43' W 075°31'0 0.0
2018-Apr-17 14:30N 39°43' W 075°31'0 0.2
2018-Apr-17 14:00N 39°43' W 075°31'0 0.0
2018-Apr-17 13:30N 39°43' W 075°31'0 0.0
2018-Apr-17 13:00N 39°43' W 075°31'0 0.0
2018-Apr-17 12:30N 39°43' W 075°31'0 0.0
2018-Apr-17 12:00N 39°43' W 075°31'0 0.0
2018-Apr-17 11:30N 39°43' W 075°31'0 0.0
2018-Apr-17 11:00N 39°43' W 075°31'0 0.0
2018-Apr-17 10:30N 39°43' W 075°31'510.8
2018-Apr-17 10:00N 39°47' W 075°27'714.0
2018-Apr-17 09:29N 39°51' W 075°19'612.0
2018-Apr-17 09:00N 39°53' W 075°12'3 7.0
2018-Apr-17 08:30N 39°55' W 075°08'0 0.4
2018-Apr-17 08:00N 39°55' W 075°08'1 1.6
2018-Apr-17 07:29N 39°54' W 075°08'3 5.7
2018-Apr-17 07:00N 39°53' W 075°11'4 7.8
2018-Apr-17 06:29N 39°51' W 075°16'4 7.4
2018-Apr-17 06:00N 39°51' W 075°20'0 0.3
2018-Apr-17 05:30N 39°51' W 075°20'3 6.1
2018-Apr-17 05:00N 39°49' W 075°23'611.2
2018-Apr-17 04:30N 39°45' W 075°29'3 5.6
2018-Apr-17 04:00N 39°43' W 075°31'0 0.0
2018-Apr-17 03:30N 39°43' W 075°31'0 0.0
2018-Apr-17 03:00N 39°43' W 075°31'0 0.0
2018-Apr-17 02:30N 39°43' W 075°31'0 0.0
2018-Apr-17 02:00N 39°43' W 075°31'0 0.0
2018-Apr-17 01:30N 39°43' W 075°31'0 0.0
2018-Apr-17 01:00N 39°43' W 075°31'0 0.0
2018-Apr-17 00:30N 39°43' W 075°31'0 0.0
2018-Apr-17 00:00N 39°43' W 075°31'0 0.0
2018-Apr-16 23:30N 39°43' W 075°31'0 0.0
2018-Apr-16 23:00N 39°43' W 075°31'0 0.0
2018-Apr-16 22:30N 39°43' W 075°31'0 0.0
2018-Apr-16 22:00N 39°43' W 075°31'0 0.0
2018-Apr-16 21:30N 39°43' W 075°31'0 0.8
2018-Apr-16 21:00N 39°43' W 075°31'0 0.8
2018-Apr-16 20:30N 39°43' W 075°31'4 8.9
2018-Apr-16 20:00N 39°47' W 075°28'612.2
2018-Apr-16 19:30N 39°50' W 075°21'1 1.9
2018-Apr-16 19:00N 39°51' W 075°21'  
Track history (hours):
 
Tides and Currents Weather Stations Pressure Air Temp Water Temp Dewpoint Dewpoint Depression Visibility Wind Speed Wind Dir Waves Ship Positions

Sally

Owner: Wilmington Tug, Inc., New Castle, DE. More information available from US FCC via Universal Licensing System and Coast Guard Vessel Documentation Center.

Last reported at 2018-Apr-26 18:30 UTC. Time now 2018-Apr-26 18:54 UTC.
Position N 39°43' W 075°31'.

Length 24 m; draft 4 m.

Type: Tug. MMSI: 367012660.

Date/timePositionNaut miles runAvg speedWind from/ knotsBaromVisibWave heightAir tempDewpointWater temp
2018-Apr-26 18:30N 39°43' W 075°31'0 0.0
2018-Apr-26 18:00N 39°43' W 075°31'0 0.0
2018-Apr-26 17:30N 39°43' W 075°31'0 0.0
2018-Apr-26 17:00N 39°43' W 075°31'2 3.5
2018-Apr-26 16:30N 39°44' W 075°30'5 9.3
2018-Apr-26 16:00N 39°48' W 075°26'0 0.0
2018-Apr-26 15:30N 39°48' W 075°26'0 0.5
2018-Apr-26 15:00N 39°48' W 075°26'0 0.7
2018-Apr-26 14:30N 39°48' W 075°25'2 4.2
2018-Apr-26 14:00N 39°47' W 075°28'5 9.5
2018-Apr-26 13:30N 39°43' W 075°31'0 0.0
2018-Apr-26 12:59N 39°43' W 075°31'0 0.0
2018-Apr-26 12:27N 39°43' W 075°31'0 0.0
2018-Apr-26 11:27N 39°43' W 075°31'0 0.4
2018-Apr-26 10:59N 39°43' W 075°31'0 0.0
2018-Apr-26 10:29N 39°43' W 075°31'0 0.0
2018-Apr-26 09:59N 39°43' W 075°31'0 0.6
2018-Apr-26 09:30N 39°43' W 075°31'0 0.0
2018-Apr-26 09:00N 39°43' W 075°31'0 0.0
2018-Apr-26 08:28N 39°43' W 075°31'0 0.0
2018-Apr-26 08:00N 39°43' W 075°31'0 0.0
2018-Apr-26 07:30N 39°43' W 075°31'0 0.0
2018-Apr-26 07:00N 39°43' W 075°31'0 0.0
2018-Apr-26 06:30N 39°43' W 075°31'0 0.0
2018-Apr-26 05:59N 39°43' W 075°31'0 0.0
2018-Apr-26 05:29N 39°43' W 075°31'0 0.0
2018-Apr-26 05:00N 39°43' W 075°31'0 0.0
2018-Apr-26 04:29N 39°43' W 075°31'0 0.0
2018-Apr-26 03:53N 39°43' W 075°31'0 0.7
2018-Apr-26 03:15N 39°43' W 075°32'0 0.9
2018-Apr-26 03:00N 39°43' W 075°31'1 1.4
2018-Apr-26 02:30N 39°43' W 075°31'0 0.1
2018-Apr-26 02:00N 39°43' W 075°31'1 1.6
2018-Apr-26 01:30N 39°43' W 075°32'0 0.0
2018-Apr-26 01:00N 39°43' W 075°32'0 0.0
2018-Apr-26 00:30N 39°43' W 075°32'0 0.0
2018-Apr-26 00:00N 39°43' W 075°32'0 0.7
2018-Apr-25 23:30N 39°43' W 075°31'611.1
2018-Apr-25 23:00N 39°38' W 075°34'510.8
2018-Apr-25 22:30N 39°33' W 075°33'3 6.4
2018-Apr-25 22:00N 39°35' W 075°36'0 0.1
2018-Apr-25 21:30N 39°35' W 075°36'0 0.0
2018-Apr-25 21:00N 39°35' W 075°36'4 7.3
2018-Apr-25 20:30N 39°39' W 075°34'510.1
2018-Apr-25 20:00N 39°43' W 075°31'0 0.0
2018-Apr-25 19:30N 39°43' W 075°31'0 0.0
2018-Apr-25 19:00N 39°43' W 075°31'0 0.0
2018-Apr-25 18:30N 39°43' W 075°31'0 0.0
2018-Apr-25 18:00N 39°43' W 075°31'0 0.0
2018-Apr-25 17:30N 39°43' W 075°31'0 0.0
2018-Apr-25 17:00N 39°43' W 075°31'0 0.0
2018-Apr-25 16:30N 39°43' W 075°31'0 0.0
2018-Apr-25 16:00N 39°43' W 075°31'0 0.0
2018-Apr-25 15:30N 39°43' W 075°31'0 0.0
2018-Apr-25 15:00N 39°43' W 075°31'0 0.4
2018-Apr-25 14:30N 39°43' W 075°31'1 1.6
2018-Apr-25 14:00N 39°42' W 075°31'1 1.3
2018-Apr-25 13:30N 39°43' W 075°31'0 0.0
2018-Apr-25 13:00N 39°43' W 075°31'0 0.0
2018-Apr-25 12:30N 39°43' W 075°31'0 0.8
2018-Apr-25 12:00N 39°43' W 075°31'0 0.5
2018-Apr-25 11:30N 39°43' W 075°31'0 0.7
2018-Apr-25 10:59N 39°43' W 075°31'0 0.5
2018-Apr-25 10:30N 39°43' W 075°31'0 0.0
2018-Apr-25 10:00N 39°43' W 075°31'0 0.0
2018-Apr-25 09:30N 39°43' W 075°31'0 0.0
2018-Apr-25 09:00N 39°43' W 075°31'0 0.0
2018-Apr-25 08:30N 39°43' W 075°31'0 0.1
2018-Apr-25 08:00N 39°43' W 075°31'5 9.3
2018-Apr-25 07:30N 39°39' W 075°34'4 8.0
2018-Apr-25 07:00N 39°35' W 075°36'0 0.0
2018-Apr-25 06:30N 39°35' W 075°36'2 4.7
2018-Apr-25 06:00N 39°34' W 075°33'3 6.1
2018-Apr-25 05:30N 39°37' W 075°35'510.6
2018-Apr-25 05:00N 39°41' W 075°31'2 3.5
2018-Apr-25 04:30N 39°43' W 075°31'0 0.0
2018-Apr-25 04:00N 39°43' W 075°31'0 0.1
2018-Apr-25 03:30N 39°43' W 075°31'0 0.0
2018-Apr-25 03:00N 39°43' W 075°31'0 0.2
2018-Apr-25 02:30N 39°43' W 075°31'0 0.0
2018-Apr-25 02:00N 39°43' W 075°31'0 0.0
2018-Apr-25 01:30N 39°43' W 075°31'0 0.0
2018-Apr-25 01:00N 39°43' W 075°31'0 0.0
2018-Apr-25 00:30N 39°43' W 075°31'0 0.0
2018-Apr-25 00:00N 39°43' W 075°31'0 0.0
2018-Apr-24 23:30N 39°43' W 075°31'0 0.0
2018-Apr-24 23:00N 39°43' W 075°31'0 0.0
2018-Apr-24 22:30N 39°43' W 075°31'0 0.0
2018-Apr-24 22:00N 39°43' W 075°31'0 0.0
2018-Apr-24 21:29N 39°43' W 075°31'0 0.0
2018-Apr-24 21:00N 39°43' W 075°31'0 0.0
2018-Apr-24 20:30N 39°43' W 075°31'0 0.0
2018-Apr-24 20:00N 39°43' W 075°31'0 0.0
2018-Apr-24 19:30N 39°43' W 075°31'0 0.0
2018-Apr-24 19:00N 39°43' W 075°31'0 0.0
2018-Apr-24 18:30N 39°43' W 075°31'0 0.0
2018-Apr-24 18:00N 39°43' W 075°31'0 0.0
2018-Apr-24 17:30N 39°43' W 075°31'0 0.0
2018-Apr-24 17:00N 39°43' W 075°31'2 5.0
2018-Apr-24 16:30N 39°45' W 075°29'612.4
2018-Apr-24 16:00N 39°49' W 075°23'612.0
2018-Apr-24 15:30N 39°51' W 075°16'510.9
2018-Apr-24 15:00N 39°53' W 075°09'4 8.5
2018-Apr-24 14:30N 39°57' W 075°08'2 4.6
2018-Apr-24 14:00N 39°59' W 075°06'0 0.2
2018-Apr-24 13:30N 39°59' W 075°06'0 0.0
2018-Apr-24 13:00N 39°59' W 075°06'2 3.8
2018-Apr-24 12:28N 39°57' W 075°08'5 9.6
2018-Apr-24 12:00N 39°53' W 075°09'611.4
2018-Apr-24 11:31N 39°51' W 075°16'0 0.3
2018-Apr-24 10:59N 39°51' W 075°16'0 0.8
2018-Apr-24 10:30N 39°51' W 075°16'0 0.0
2018-Apr-24 10:00N 39°51' W 075°16'3 6.0
2018-Apr-24 09:30N 39°52' W 075°12'4 8.5
2018-Apr-24 09:00N 39°55' W 075°08'0 0.6
2018-Apr-24 08:30N 39°55' W 075°08'0 0.2
2018-Apr-24 08:00N 39°55' W 075°08'2 4.8
2018-Apr-24 07:30N 39°53' W 075°09'5 9.1
2018-Apr-24 07:00N 39°51' W 075°15'5 9.5
2018-Apr-24 06:30N 39°50' W 075°21'5 9.4
2018-Apr-24 06:00N 39°48' W 075°26'5 9.4
2018-Apr-24 05:30N 39°44' W 075°30'1 2.8
2018-Apr-24 05:00N 39°43' W 075°31'0 0.0
2018-Apr-24 04:30N 39°43' W 075°31'0 0.0
2018-Apr-24 04:00N 39°43' W 075°31'0 0.0
2018-Apr-24 03:30N 39°43' W 075°31'0 0.0
2018-Apr-24 03:00N 39°43' W 075°31'0 0.0
2018-Apr-24 02:30N 39°43' W 075°31'0 0.0
2018-Apr-24 02:00N 39°43' W 075°31'0 0.0
2018-Apr-24 01:30N 39°43' W 075°31'0 0.0
2018-Apr-24 01:00N 39°43' W 075°31'0 0.0
2018-Apr-24 00:30N 39°43' W 075°31'0 0.0
2018-Apr-24 00:00N 39°43' W 075°31'0 0.0
2018-Apr-23 23:30N 39°43' W 075°31'0 0.0
2018-Apr-23 23:00N 39°43' W 075°31'0 0.0
2018-Apr-23 22:30N 39°43' W 075°31'0 0.0
2018-Apr-23 22:00N 39°43' W 075°31'0 0.0
2018-Apr-23 21:30N 39°43' W 075°31'0 0.0
2018-Apr-23 21:00N 39°43' W 075°31'0 0.0
2018-Apr-23 20:30N 39°43' W 075°31'0 0.0
2018-Apr-23 20:00N 39°43' W 075°31'0 0.7
2018-Apr-23 19:30N 39°43' W 075°32'0 0.9
2018-Apr-23 18:58N 39°43' W 075°31'1 2.4
2018-Apr-23 18:30N 39°42' W 075°31'1 2.6
2018-Apr-23 18:00N 39°43' W 075°31'0 0.1
2018-Apr-23 17:30N 39°43' W 075°31'0 0.4
2018-Apr-23 17:00N 39°43' W 075°31'0 0.0
2018-Apr-23 16:30N 39°43' W 075°31'0 0.0
2018-Apr-23 16:00N 39°43' W 075°31'0 0.0
2018-Apr-23 15:30N 39°43' W 075°31'0 0.0
2018-Apr-23 15:00N 39°43' W 075°31'0 0.0
2018-Apr-23 14:30N 39°43' W 075°31'0 0.0
2018-Apr-23 13:56N 39°43' W 075°31'1 1.4
2018-Apr-23 13:30N 39°43' W 075°31'1 1.8
2018-Apr-23 13:00N 39°42' W 075°31'1 1.7
2018-Apr-23 12:30N 39°43' W 075°31'0 0.0
2018-Apr-23 12:00N 39°43' W 075°31'0 0.0
2018-Apr-23 11:30N 39°43' W 075°31'0 0.0
2018-Apr-23 11:00N 39°43' W 075°31'510.2
2018-Apr-23 10:30N 39°38' W 075°34'611.8
2018-Apr-23 10:00N 39°32' W 075°33'3 6.4
2018-Apr-23 09:30N 39°35' W 075°35'0 0.4
2018-Apr-23 09:00N 39°35' W 075°35'0 0.0
2018-Apr-23 08:30N 39°35' W 075°35'0 0.0
2018-Apr-23 08:00N 39°35' W 075°35'0 0.4
2018-Apr-23 07:30N 39°35' W 075°36'0 0.0
2018-Apr-23 07:00N 39°35' W 075°36'0 0.0
2018-Apr-23 06:30N 39°35' W 075°36'0 0.0
2018-Apr-23 06:00N 39°35' W 075°36'0 0.0
2018-Apr-23 05:30N 39°35' W 075°36'0 0.0
2018-Apr-23 05:00N 39°35' W 075°36'0 0.0
2018-Apr-23 04:30N 39°35' W 075°36'0 0.0
2018-Apr-23 04:00N 39°35' W 075°36'0 0.0
2018-Apr-23 03:30N 39°35' W 075°36'0 0.0
2018-Apr-23 03:00N 39°35' W 075°36'0 0.0
2018-Apr-23 02:29N 39°35' W 075°36'1 1.9
2018-Apr-23 02:00N 39°35' W 075°35'3 5.8
2018-Apr-23 01:30N 39°32' W 075°33'3 7.0
2018-Apr-23 01:00N 39°35' W 075°35'0 0.0
2018-Apr-23 00:30N 39°35' W 075°35'0 0.0
2018-Apr-23 00:00N 39°35' W 075°35'1 1.2
2018-Apr-22 23:30N 39°35' W 075°35'2 3.4
2018-Apr-22 23:00N 39°34' W 075°33'2 4.9
2018-Apr-22 22:30N 39°36' W 075°34'1 2.7
2018-Apr-22 22:00N 39°35' W 075°35'0 0.9
2018-Apr-22 21:30N 39°35' W 075°35'0 0.0
2018-Apr-22 21:00N 39°35' W 075°35'0 0.0
2018-Apr-22 20:30N 39°35' W 075°35'0 0.0
2018-Apr-22 20:00N 39°35' W 075°35'0 0.0
2018-Apr-22 19:30N 39°35' W 075°35'0 0.0
2018-Apr-22 19:00N 39°35' W 075°35'0 0.0
2018-Apr-22 18:30N 39°35' W 075°35'0 0.0
2018-Apr-22 18:00N 39°35' W 075°35'0 0.0
2018-Apr-22 17:30N 39°35' W 075°35'0 0.0
2018-Apr-22 17:00N 39°35' W 075°35'0 0.0
2018-Apr-22 16:30N 39°35' W 075°35'0 0.0
2018-Apr-22 16:00N 39°35' W 075°35'0 0.0
2018-Apr-22 15:30N 39°35' W 075°35'0 0.0
2018-Apr-22 15:01N 39°35' W 075°35'0 0.0
2018-Apr-22 14:30N 39°35' W 075°35'0 0.0
2018-Apr-22 14:00N 39°35' W 075°35'0 0.0
2018-Apr-22 13:30N 39°35' W 075°35'0 0.0
2018-Apr-22 13:00N 39°35' W 075°35'0 0.0
2018-Apr-22 12:30N 39°35' W 075°35'0 0.0
2018-Apr-22 12:00N 39°35' W 075°35'0 0.0
2018-Apr-22 11:30N 39°35' W 075°35'0 0.0
2018-Apr-22 11:00N 39°35' W 075°35'0 0.0
2018-Apr-22 10:30N 39°35' W 075°35'0 0.0
2018-Apr-22 10:00N 39°35' W 075°35'0 0.0
2018-Apr-22 09:30N 39°35' W 075°35'0 0.0
2018-Apr-22 09:00N 39°35' W 075°35'0 0.0
2018-Apr-22 08:30N 39°35' W 075°35'0 0.0
2018-Apr-22 08:00N 39°35' W 075°35'0 0.0
2018-Apr-22 07:30N 39°35' W 075°35'0 0.0
2018-Apr-22 07:00N 39°35' W 075°35'0 0.0
2018-Apr-22 06:30N 39°35' W 075°35'0 0.0
2018-Apr-22 06:00N 39°35' W 075°35'0 0.0
2018-Apr-22 05:30N 39°35' W 075°35'0 0.0
2018-Apr-22 05:00N 39°35' W 075°35'0 0.0
2018-Apr-22 04:30N 39°35' W 075°35'0 0.0
2018-Apr-22 04:00N 39°35' W 075°35'0 0.5
2018-Apr-22 03:30N 39°35' W 075°36'0 0.0
2018-Apr-22 03:00N 39°35' W 075°36'0 0.6
2018-Apr-22 02:30N 39°35' W 075°35'0 0.0
2018-Apr-22 02:00N 39°35' W 075°35'0 0.0
2018-Apr-22 01:30N 39°35' W 075°35'0 0.0
2018-Apr-22 01:00N 39°35' W 075°35'0 0.0
2018-Apr-22 00:30N 39°35' W 075°35'3 5.1
2018-Apr-22 00:00N 39°37' W 075°36'612.0
2018-Apr-21 23:30N 39°42' W 075°31'1 2.3
2018-Apr-21 23:00N 39°43' W 075°31'0 0.4
2018-Apr-21 22:30N 39°43' W 075°31'2 4.0
2018-Apr-21 22:00N 39°41' W 075°31'0 0.2
2018-Apr-21 21:30N 39°41' W 075°31'2 3.9
2018-Apr-21 21:00N 39°43' W 075°31'0 0.0
2018-Apr-21 20:30N 39°43' W 075°31'0 0.0
2018-Apr-21 19:52N 39°43' W 075°31'0 0.0
2018-Apr-21 19:17N 39°43' W 075°31'0 0.0
2018-Apr-21 18:18N 39°43' W 075°31'0 0.0
2018-Apr-21 17:59N 39°43' W 075°31'0 0.0
2018-Apr-21 17:30N 39°43' W 075°31'0 0.0
2018-Apr-21 16:59N 39°43' W 075°31'0 0.0
2018-Apr-21 16:28N 39°43' W 075°31'0 0.0
2018-Apr-21 15:57N 39°43' W 075°31'0 0.0
2018-Apr-21 15:30N 39°43' W 075°31'0 0.0
2018-Apr-21 15:00N 39°43' W 075°31'0 0.0
2018-Apr-21 14:29N 39°43' W 075°31'0 0.0
2018-Apr-21 13:59N 39°43' W 075°31'0 0.0
2018-Apr-21 13:30N 39°43' W 075°31'0 0.0
2018-Apr-21 12:59N 39°43' W 075°31'0 0.0
2018-Apr-21 12:28N 39°43' W 075°31'0 0.0
2018-Apr-21 11:58N 39°43' W 075°31'0 0.0
2018-Apr-21 11:29N 39°43' W 075°31'0 0.0
2018-Apr-21 11:00N 39°43' W 075°31'0 0.0
2018-Apr-21 10:30N 39°43' W 075°31'0 0.0
2018-Apr-21 10:00N 39°43' W 075°31'1 2.5
2018-Apr-21 09:30N 39°42' W 075°31'612.6
2018-Apr-21 09:00N 39°37' W 075°36'2 3.6
2018-Apr-21 08:30N 39°35' W 075°36'0 0.3
2018-Apr-21 08:00N 39°35' W 075°35'0 0.0
2018-Apr-21 07:30N 39°35' W 075°35'0 0.0
2018-Apr-21 07:00N 39°35' W 075°35'0 0.0
2018-Apr-21 06:30N 39°35' W 075°35'0 0.0
2018-Apr-21 06:00N 39°35' W 075°35'0 0.0
2018-Apr-21 05:30N 39°35' W 075°35'0 0.0
2018-Apr-21 05:00N 39°35' W 075°35'0 0.0
2018-Apr-21 04:30N 39°35' W 075°35'0 0.0
2018-Apr-21 04:00N 39°35' W 075°35'0 0.0
2018-Apr-21 03:30N 39°35' W 075°35'0 0.0
2018-Apr-21 03:00N 39°35' W 075°35'1 2.5
2018-Apr-21 02:30N 39°36' W 075°36'611.2
2018-Apr-21 02:00N 39°41' W 075°32'2 4.8
2018-Apr-21 01:30N 39°43' W 075°31'0 0.5
2018-Apr-21 01:00N 39°43' W 075°31'0 0.0
2018-Apr-21 00:30N 39°43' W 075°31'0 0.0
2018-Apr-21 00:00N 39°43' W 075°31'0 0.0
2018-Apr-20 23:30N 39°43' W 075°31'0 0.0
2018-Apr-20 23:00N 39°43' W 075°31'0 0.0
2018-Apr-20 22:30N 39°43' W 075°31'0 0.0
2018-Apr-20 22:00N 39°43' W 075°31'0 0.0
2018-Apr-20 21:30N 39°43' W 075°31'0 0.0
2018-Apr-20 21:00N 39°43' W 075°31'0 0.0
2018-Apr-20 20:30N 39°43' W 075°31'0 0.0
2018-Apr-20 20:00N 39°43' W 075°31'0 0.0
2018-Apr-20 19:30N 39°43' W 075°31'0 0.0
2018-Apr-20 19:00N 39°43' W 075°31'0 0.0
2018-Apr-20 18:30N 39°43' W 075°31'0 0.0
2018-Apr-20 18:00N 39°43' W 075°31'0 0.0
2018-Apr-20 17:30N 39°43' W 075°31'0 0.0
2018-Apr-20 16:59N 39°43' W 075°31'0 0.0
2018-Apr-20 16:30N 39°43' W 075°31'0 0.0
2018-Apr-20 16:00N 39°43' W 075°31'0 0.0
2018-Apr-20 15:30N 39°43' W 075°31'0 0.0
2018-Apr-20 15:00N 39°43' W 075°31'0 0.0
2018-Apr-20 14:30N 39°43' W 075°31'0 0.0
2018-Apr-20 14:00N 39°43' W 075°31'0 0.0
2018-Apr-20 13:30N 39°43' W 075°31'0 0.5
2018-Apr-20 13:00N 39°43' W 075°31'0 0.5
2018-Apr-20 12:30N 39°43' W 075°31'0 0.0
2018-Apr-20 11:59N 39°43' W 075°31'0 0.0
2018-Apr-20 11:29N 39°43' W 075°31'0 0.0
2018-Apr-20 10:55N 39°43' W 075°31'0 0.0
2018-Apr-20 10:30N 39°43' W 075°31'0 0.0
2018-Apr-20 10:00N 39°43' W 075°31'0 0.0
2018-Apr-20 09:29N 39°43' W 075°31'0 0.0
2018-Apr-20 09:00N 39°43' W 075°31'0 0.3
2018-Apr-20 08:30N 39°43' W 075°31'1 1.7
2018-Apr-20 08:00N 39°43' W 075°30'1 1.4
2018-Apr-20 07:30N 39°43' W 075°31'0 0.0
2018-Apr-20 06:59N 39°43' W 075°31'0 0.0
2018-Apr-20 06:29N 39°43' W 075°31'0 0.0
2018-Apr-20 06:00N 39°43' W 075°31'0 0.0
2018-Apr-20 05:30N 39°43' W 075°31'0 0.0
2018-Apr-20 05:00N 39°43' W 075°31'0 0.0
2018-Apr-20 04:30N 39°43' W 075°31'0 0.0
2018-Apr-20 04:00N 39°43' W 075°31'0 0.2
2018-Apr-20 03:30N 39°43' W 075°31'0 0.1
2018-Apr-20 03:00N 39°43' W 075°31'1 1.7
2018-Apr-20 02:30N 39°42' W 075°31'1 1.6
2018-Apr-20 02:00N 39°43' W 075°31'0 0.0
2018-Apr-20 01:30N 39°43' W 075°31'0 0.0
2018-Apr-20 01:00N 39°43' W 075°31'0 0.0
2018-Apr-20 00:30N 39°43' W 075°31'0 0.0
2018-Apr-20 00:00N 39°43' W 075°31'0 0.0
2018-Apr-19 23:19N 39°43' W 075°31'0 0.0
2018-Apr-19 23:00N 39°43' W 075°31'0 0.0
2018-Apr-19 22:30N 39°43' W 075°31'0 0.0
2018-Apr-19 22:00N 39°43' W 075°31'0 0.0
2018-Apr-19 21:30N 39°43' W 075°31'0 0.0
2018-Apr-19 21:00N 39°43' W 075°31'0 0.0
2018-Apr-19 20:30N 39°43' W 075°31'4 8.2
2018-Apr-19 20:00N 39°39' W 075°34'5 9.0
2018-Apr-19 19:30N 39°35' W 075°36'0 0.0
2018-Apr-19 19:00N 39°35' W 075°36'2 4.9
2018-Apr-19 18:30N 39°38' W 075°36'5 9.4
2018-Apr-19 18:00N 39°41' W 075°32'2 4.3
2018-Apr-19 17:30N 39°43' W 075°31'0 0.0
2018-Apr-19 17:00N 39°43' W 075°31'0 0.0
2018-Apr-19 16:30N 39°43' W 075°31'0 0.0
2018-Apr-19 16:00N 39°43' W 075°31'0 0.0
2018-Apr-19 15:30N 39°43' W 075°31'0 0.0
2018-Apr-19 15:00N 39°43' W 075°31'0 0.0
2018-Apr-19 14:30N 39°43' W 075°31'0 0.0
2018-Apr-19 14:00N 39°43' W 075°31'0 0.0
2018-Apr-19 13:30N 39°43' W 075°31'0 0.0
2018-Apr-19 13:00N 39°43' W 075°31'0 0.0
2018-Apr-19 12:30N 39°43' W 075°31'0 0.0
2018-Apr-19 12:00N 39°43' W 075°31'0 0.0
2018-Apr-19 11:30N 39°43' W 075°31'0 0.0
2018-Apr-19 10:59N 39°43' W 075°31'0 0.0
2018-Apr-19 10:30N 39°43' W 075°31'0 0.0
2018-Apr-19 10:00N 39°43' W 075°31'0 0.0
2018-Apr-19 09:30N 39°43' W 075°31'0 0.0
2018-Apr-19 09:00N 39°43' W 075°31'0 0.0
2018-Apr-19 08:30N 39°43' W 075°31'0 0.0
2018-Apr-19 08:00N 39°43' W 075°31'0 0.0
2018-Apr-19 07:30N 39°43' W 075°31'0 0.0
2018-Apr-19 07:00N 39°43' W 075°31'0 0.0
2018-Apr-19 06:30N 39°43' W 075°31'0 0.0
2018-Apr-19 06:00N 39°43' W 075°31'0 0.0
2018-Apr-19 05:30N 39°43' W 075°31'0 0.0
2018-Apr-19 05:00N 39°43' W 075°31'0 0.0
2018-Apr-19 04:30N 39°43' W 075°31'0 0.0
2018-Apr-19 04:00N 39°43' W 075°31'0 0.0
2018-Apr-19 03:30N 39°43' W 075°31'0 0.0
2018-Apr-19 03:00N 39°43' W 075°31'0 0.0
2018-Apr-19 02:30N 39°43' W 075°31'0 0.0
2018-Apr-19 02:00N 39°43' W 075°31'0 0.0
2018-Apr-19 01:30N 39°43' W 075°31'0 0.0
2018-Apr-19 01:00N 39°43' W 075°31'0 0.2
2018-Apr-19 00:30N 39°43' W 075°31'4 8.4
2018-Apr-19 00:00N 39°46' W 075°28'612.7
2018-Apr-18 23:30N 39°50' W 075°21'1 2.0
2018-Apr-18 23:00N 39°51' W 075°20'2 3.1
2018-Apr-18 22:30N 39°51' W 075°18'2 3.9
2018-Apr-18 22:00N 39°51' W 075°16'611.1
2018-Apr-18 21:30N 39°53' W 075°09'2 4.3
2018-Apr-18 21:00N 39°55' W 075°08'3 5.2
2018-Apr-18 20:31N 39°53' W 075°10'1 2.3
2018-Apr-18 20:00N 39°53' W 075°12'1 1.1
2018-Apr-18 19:30N 39°54' W 075°12'0 0.6
2018-Apr-18 19:01N 39°54' W 075°12'0 0.3
2018-Apr-18 18:30N 39°54' W 075°12'1 1.9
2018-Apr-18 18:00N 39°53' W 075°12'510.8
2018-Apr-18 17:31N 39°51' W 075°19'611.8
2018-Apr-18 17:00N 39°48' W 075°25'612.8
2018-Apr-18 16:30N 39°43' W 075°30'0 0.8
2018-Apr-18 16:00N 39°43' W 075°31'0 0.0
2018-Apr-18 15:30N 39°43' W 075°31'0 0.0
2018-Apr-18 15:00N 39°43' W 075°31'0 0.0
2018-Apr-18 14:30N 39°43' W 075°31'0 0.0
2018-Apr-18 14:00N 39°43' W 075°31'0 0.0
2018-Apr-18 13:30N 39°43' W 075°31'0 0.0
2018-Apr-18 13:00N 39°43' W 075°31'0 0.0
2018-Apr-18 12:30N 39°43' W 075°31'0 0.0
2018-Apr-18 12:00N 39°43' W 075°31'0 0.0
2018-Apr-18 11:30N 39°43' W 075°31'0 0.0
2018-Apr-18 11:00N 39°43' W 075°31'0 0.0
2018-Apr-18 10:30N 39°43' W 075°31'0 0.0
2018-Apr-18 10:00N 39°43' W 075°31'1 2.6
2018-Apr-18 09:30N 39°42' W 075°31'5 9.1
2018-Apr-18 09:00N 39°38' W 075°35'3 6.7
2018-Apr-18 08:30N 39°35' W 075°35'0 0.0
2018-Apr-18 08:00N 39°35' W 075°35'0 0.0
2018-Apr-18 07:30N 39°35' W 075°35'1 2.6
2018-Apr-18 07:00N 39°34' W 075°34'1 1.2
2018-Apr-18 06:30N 39°34' W 075°33'3 5.8
2018-Apr-18 06:00N 39°37' W 075°35'3 6.7
2018-Apr-18 05:30N 39°40' W 075°32'4 7.1
2018-Apr-18 05:00N 39°43' W 075°31'0 0.8
2018-Apr-18 04:30N 39°43' W 075°31'0 0.1
2018-Apr-18 04:00N 39°43' W 075°31'0 0.8
2018-Apr-18 03:30N 39°43' W 075°31'0 0.0
2018-Apr-18 03:00N 39°43' W 075°31'0 0.0
2018-Apr-18 02:30N 39°43' W 075°31'0 0.0
2018-Apr-18 02:00N 39°43' W 075°31'0 0.0
2018-Apr-18 01:30N 39°43' W 075°31'0 0.0
2018-Apr-18 01:00N 39°43' W 075°31'0 0.0
2018-Apr-18 00:30N 39°43' W 075°31'0 0.0
2018-Apr-18 00:00N 39°43' W 075°31'0 0.0
2018-Apr-17 23:30N 39°43' W 075°31'0 0.4
2018-Apr-17 23:00N 39°43' W 075°31'0 0.4
2018-Apr-17 22:29N 39°43' W 075°31'0 0.0
2018-Apr-17 22:00N 39°43' W 075°31'0 0.0
2018-Apr-17 21:30N 39°43' W 075°31'0 0.0
2018-Apr-17 21:00N 39°43' W 075°31'0 0.0
2018-Apr-17 20:30N 39°43' W 075°31'0 0.0
2018-Apr-17 20:00N 39°43' W 075°31'0 0.0
2018-Apr-17 19:30N 39°43' W 075°31'0 0.0
2018-Apr-17 19:00N 39°43' W 075°31'0 0.0
2018-Apr-17 18:30N 39°43' W 075°31'0 0.0
2018-Apr-17 18:00N 39°43' W 075°31'0 0.0
2018-Apr-17 17:30N 39°43' W 075°31'0 0.8
2018-Apr-17 17:00N 39°43' W 075°31'0 0.2
2018-Apr-17 16:30N 39°43' W 075°32'0 0.8
2018-Apr-17 16:00N 39°43' W 075°31'0 0.2
2018-Apr-17 15:30N 39°43' W 075°31'0 0.0
2018-Apr-17 15:00N 39°43' W 075°31'0 0.0
2018-Apr-17 14:30N 39°43' W 075°31'0 0.2
2018-Apr-17 14:00N 39°43' W 075°31'0 0.0
2018-Apr-17 13:30N 39°43' W 075°31'0 0.0
2018-Apr-17 13:00N 39°43' W 075°31'0 0.0
2018-Apr-17 12:30N 39°43' W 075°31'0 0.0
2018-Apr-17 12:00N 39°43' W 075°31'0 0.0
2018-Apr-17 11:30N 39°43' W 075°31'0 0.0
2018-Apr-17 11:00N 39°43' W 075°31'0 0.0
2018-Apr-17 10:30N 39°43' W 075°31'510.8
2018-Apr-17 10:00N 39°47' W 075°27'714.0
2018-Apr-17 09:29N 39°51' W 075°19'612.0
2018-Apr-17 09:00N 39°53' W 075°12'3 7.0
2018-Apr-17 08:30N 39°55' W 075°08'0 0.4
2018-Apr-17 08:00N 39°55' W 075°08'1 1.6
2018-Apr-17 07:29N 39°54' W 075°08'3 5.7
2018-Apr-17 07:00N 39°53' W 075°11'4 7.8
2018-Apr-17 06:29N 39°51' W 075°16'4 7.4
2018-Apr-17 06:00N 39°51' W 075°20'0 0.3
2018-Apr-17 05:30N 39°51' W 075°20'3 6.1
2018-Apr-17 05:00N 39°49' W 075°23'611.2
2018-Apr-17 04:30N 39°45' W 075°29'3 5.6
2018-Apr-17 04:00N 39°43' W 075°31'0 0.0
2018-Apr-17 03:30N 39°43' W 075°31'0 0.0
2018-Apr-17 03:00N 39°43' W 075°31'0 0.0
2018-Apr-17 02:30N 39°43' W 075°31'0 0.0
2018-Apr-17 02:00N 39°43' W 075°31'0 0.0
2018-Apr-17 01:30N 39°43' W 075°31'0 0.0
2018-Apr-17 01:00N 39°43' W 075°31'0 0.0
2018-Apr-17 00:30N 39°43' W 075°31'0 0.0
2018-Apr-17 00:00N 39°43' W 075°31'0 0.0
2018-Apr-16 23:30N 39°43' W 075°31'0 0.0
2018-Apr-16 23:00N 39°43' W 075°31'0 0.0
2018-Apr-16 22:30N 39°43' W 075°31'0 0.0
2018-Apr-16 22:00N 39°43' W 075°31'0 0.0
2018-Apr-16 21:30N 39°43' W 075°31'0 0.8
2018-Apr-16 21:00N 39°43' W 075°31'0 0.8
2018-Apr-16 20:30N 39°43' W 075°31'4 8.9
2018-Apr-16 20:00N 39°47' W 075°28'612.2
2018-Apr-16 19:30N 39°50' W 075°21'1 1.9
2018-Apr-16 19:00N 39°51' W 075°21'  

Dump ship's entire track history